Alberta, Minnesota
Current Conditions -  °F | °C
As of 8:33 PM on Wednesday 17 Dec 2014 (Local Time) from KMOX Reporting Station
Clear Clear  
Wind Chill:   Ceiling: Unl
Heat Index:   Visibility: 7mi
Dew Point:   Wind: 3mph
Humidity: 92%   Direction: 300°WNW
Pressure: 30.3"   Gusts: NA
Location:  45.57°N, 96.05°W
Report Text: KMOX 180233Z AUTO 30003KT 7SM CLR M13/M14 A3030 RMK AO2
Loading
Personal Weather Stations






























Interactive Weather Map New forecast layout! Learn more

10-Day Weather Forecast

Advertisements
Track Severe Weather on mobile